Main page
METAR-TAF:

METAR-TAF

Airports :

Pisa International Airport

Pisa, Italy

latitude: 43-41N, longitude: 010-23E, elevation: 2 m

Current weather observation

The report was made 48 minutes ago, at 08:15 UTC
Wind 5 kt from the East/Southeast
Temperature 23°C
Humidity 69%
Pressure 1016 hPa
Visibility 10 km or more
no clouds below 1500 m and no cumulonimbus

METAR: LIRP 210815Z 12005KT CAVOK 23/17 Q1016 NOSIG

Time: 11:03 (09:03 UTC)

Forecast

The report was made 4 hours and 3 minutes ago, at 05:00 UTC
Forecast valid from 21 at 06 UTC to 22 at 06 UTC
Wind 5 kt from the East/Southeast
Visibility 10 km or more
no clouds below 1500 m and no cumulonimbus
Becoming
from 21 at 09 UTC to 21 at 11 UTC
Wind 10 kt from the West
Becoming
from 21 at 21 UTC to 21 at 22 UTC
Wind 5 kt from the East

TAF: LIRP 210500Z 2106/2206 12005KT CAVOK BECMG 2109/2111 27010KT BECMG 2121/2122 10005KT

Weather observations and forecasts of more than 4000 airports (METAR and TAF reports).

The available stations are represented by yellow and red dots on the map.

Hover mouse over dot to see the name of the station.

Then click to see weather observations and forecasts.

To change the map : click on the green buttons with a black cross to zoom in, on the green button with a dash to zoom out, or on the green arrows for adjacent maps.


METAR-TAF: